sensor_id;sensor_type;location;lat;lon;timestamp;pressure;altitude;pressure_sealevel;temperature;humidity
55014;BME280;40916;51.632;5.552;2023-03-22T00:00:04;1005.9196249576071;;;9.570676452620415;0
55014;BME280;40916;51.632;5.552;2023-03-22T00:03:04;1005.8939224160372;;;9.570676452620415;0
55014;BME280;40916;51.632;5.552;2023-03-22T00:04:04;1005.8328982058536;;;9.543162878323017;0
55014;BME280;40916;51.632;5.552;2023-03-22T00:05:04;1005.840241343964;;;9.543162878323017;0
55014;BME280;40916;51.632;5.552;2023-03-22T00:06:04;1005.8130494141712;;;9.536283354273596;0
55014;BME280;40916;51.632;5.552;2023-03-22T00:07:04;1005.822571085395;;;9.529403377744572;0
55014;BME280;40916;51.632;5.552;2023-03-22T00:08:04;1005.7755239117889;;;9.515642066668075;0
55014;BME280;40916;51.632;5.552;2023-03-22T00:09:05;1005.8159087326833;;;9.515642066668075;0
55014;BME280;40916;51.632;5.552;2023-03-22T00:10:05;1005.7718525651474;;;9.515642066668075;0
55014;BME280;40916;51.632;5.552;2023-03-22T00:11:05;1005.8269227772388;;;9.515642066668075;0
55014;BME280;40916;51.632;5.552;2023-03-22T00:12:05;1005.7636838547141;;;9.494996702831923;0
55014;BME280;40916;51.632;5.552;2023-03-22T00:13:05;1005.7952213561963;;;9.488114008380318;0
55014;BME280;40916;51.632;5.552;2023-03-22T00:14:05;1005.839274887604;;;9.488114008380318;0
55014;BME280;40916;51.632;5.552;2023-03-22T00:15:05;1005.725274865007;;;9.453693730787254;0
55014;BME280;40916;51.632;5.552;2023-03-22T00:16:06;1005.7928621486627;;;9.460578694168614;0
55014;BME280;40916;51.632;5.552;2023-03-22T00:17:05;1005.725274865007;;;9.453693730787254;0
55014;BME280;40916;51.632;5.552;2023-03-22T00:18:05;1005.69503655496;;;9.433036114725937;0
55014;BME280;40916;51.632;5.552;2023-03-22T00:19:05;1005.7369305623397;;;9.439922441211586;0
55014;BME280;40916;51.632;5.552;2023-03-22T00:20:06;1005.6341499130993;;;9.439922441211586;0
55014;BME280;40916;51.632;5.552;2023-03-22T00:21:08;1005.6473176906671;;;9.433036114725937;0
55014;BME280;40916;51.632;5.552;2023-03-22T00:22:06;1005.6494713886464;;;9.426149333580746;0
55014;BME280;40916;51.632;5.552;2023-03-22T00:23:06;1005.613397500613;;;9.412374406728372;0
55014;BME280;40916;51.632;5.552;2023-03-22T00:24:06;1005.6124972408514;;;9.391708602855548;0
55014;BME280;40916;51.632;5.552;2023-03-22T00:25:06;1005.6094412389668;;;9.377929122839934;0
55014;BME280;40916;51.632;5.552;2023-03-22T00:26:06;1005.6718353129004;;;9.377929122839934;0
55014;BME280;40916;51.632;5.552;2023-03-22T00:27:06;1005.5042176183879;;;9.350364691702808;0
55014;BME280;40916;51.632;5.552;2023-03-22T00:28:06;1005.524701156108;;;9.343472443250768;0
55014;BME280;40916;51.632;5.552;2023-03-22T00:29:06;1005.5451822683762;;;9.336579738238566;0
55014;BME280;40916;51.632;5.552;2023-03-22T00:30:07;1005.5886279840465;;;9.350364691702808;0
55014;BME280;40916;51.632;5.552;2023-03-22T00:31:07;1005.5152276625232;;;9.350364691702808;0
55014;BME280;40916;51.632;5.552;2023-03-22T00:32:07;1005.5666078826066;;;9.350364691702808;0
55014;BME280;40916;51.632;5.552;2023-03-22T00:33:07;1005.5268327424162;;;9.336579738238566;0
55014;BME280;40916;51.632;5.552;2023-03-22T00:34:07;1005.5714580297969;;;9.322792957947044;0
55014;BME280;40916;51.632;5.552;2023-03-22T00:35:07;1005.5111977983219;;;9.315898882374256;0
55014;BME280;40916;51.632;5.552;2023-03-22T00:36:08;1005.4190560962345;;;9.281421644365025;0
55014;BME280;40916;51.632;5.552;2023-03-22T00:37:07;1005.421172642156;;;9.274524823704997;0
55014;BME280;40916;51.632;5.552;2023-03-22T00:38:07;1005.3541262284506;;;9.253831612959399;0
55014;BME280;40916;51.632;5.552;2023-03-22T00:39:07;1005.4107229122881;;;9.260729808149485;0
55014;BME280;40916;51.632;5.552;2023-03-22T00:40:08;1005.4458571858827;;;9.253831612959399;0
55014;BME280;40916;51.632;5.552;2023-03-22T00:42:08;1005.3222044569734;;;9.177921174284055;0
55014;BME280;40916;51.632;5.552;2023-03-22T00:43:08;1005.3221232695764;;;9.129585557795888;0
55014;BME280;40916;51.632;5.552;2023-03-22T00:44:08;1005.3021913567876;;;9.122678626372366;0
55014;BME280;40916;51.632;5.552;2023-03-22T00:45:09;1005.2779382818148;;;9.081227345662342;0
55014;BME280;40916;51.632;5.552;2023-03-22T00:46:08;1005.2804594172723;;;9.0604954679287;0
55014;BME280;40916;51.632;5.552;2023-03-22T00:47:08;1005.2405650271767;;;9.046671903233442;0
55014;BME280;40916;51.632;5.552;2023-03-22T00:48:09;1005.2792963051604;;;9.039759426576232;0
55014;BME280;40916;51.632;5.552;2023-03-22T00:49:08;1005.2206159890808;;;9.039759426576232;0
55014;BME280;40916;51.632;5.552;2023-03-22T00:50:09;1005.1937676604308;;;9.019019217573653;0
55014;BME280;40916;51.632;5.552;2023-03-22T00:51:09;1005.2198678453132;;;9.005190094217639;0
55014;BME280;40916;51.632;5.552;2023-03-22T00:52:09;1005.1872850116216;;;8.991359115581503;0
55014;BME280;40916;51.632;5.552;2023-03-22T00:53:09;1005.1876999738134;;;8.977526280466932;0
55014;BME280;40916;51.632;5.552;2023-03-22T00:54:09;1005.1620308394375;;;8.977526280466932;0
55014;BME280;40916;51.632;5.552;2023-03-22T00:55:09;1005.2027751909048;;;8.963691587674571;0
55014;BME280;40916;51.632;5.552;2023-03-22T00:56:09;1005.168537993331;;;8.94293606271405;0
55014;BME280;40916;51.632;5.552;2023-03-22T00:57:09;1005.221900747765;;;8.936016624253913;0
55014;BME280;40916;51.632;5.552;2023-03-22T00:58:09;1005.1746196647479;;;8.922176351221744;0
55014;BME280;40916;51.632;5.552;2023-03-22T00:59:09;1005.1603322652488;;;8.908334215704038;0
55014;BME280;40916;51.632;5.552;2023-03-22T01:00:10;1005.1680364784341;;;8.89449021649627;0
55014;BME280;40916;51.632;5.552;2023-03-22T01:01:10;1005.1150580213805;;;8.887567517631915;0
55014;BME280;40916;51.632;5.552;2023-03-22T01:02:10;1005.1550193285987;;;8.901412449136735;0
55014;BME280;40916;51.632;5.552;2023-03-22T01:03:10;1005.1057084712438;;;8.89449021649627;0
55014;BME280;40916;51.632;5.552;2023-03-22T01:04:10;1005.1146888328824;;;8.901412449136735;0
55014;BME280;40916;51.632;5.552;2023-03-22T01:05:10;1005.0650042172634;;;8.908334215704038;0
55014;BME280;40916;51.632;5.552;2023-03-22T01:06:10;1005.0609558602898;;;8.922176351221744;0
55014;BME280;40916;51.632;5.552;2023-03-22T01:07:10;1005.1302335729144;;;8.936016624253913;0
55014;BME280;40916;51.632;5.552;2023-03-22T01:08:10;1005.0462895712301;;;8.922176351221744;0
55014;BME280;40916;51.632;5.552;2023-03-22T01:09:10;1005.0556479570159;;;8.91525551634884;0
55014;BME280;40916;51.632;5.552;2023-03-22T01:10:11;1005.0540048322624;;;8.908334215704038;0
55014;BME280;40916;51.632;5.552;2023-03-22T01:11:11;1005.0723371411897;;;8.908334215704038;0
55014;BME280;40916;51.632;5.552;2023-03-22T01:12:11;1005.0507131991995;;;8.89449021649627;0
55014;BME280;40916;51.632;5.552;2023-03-22T01:13:11;1004.9814220903829;;;8.880644352392874;0
55014;BME280;40916;51.632;5.552;2023-03-22T01:14:11;1004.9234826911522;;;8.852947024671717;0
55014;BME280;40916;51.632;5.552;2023-03-22T01:15:11;1004.9161506634164;;;8.852947024671717;0
55014;BME280;40916;51.632;5.552;2023-03-22T01:16:11;1004.9198166772251;;;8.852947024671717;0
55014;BME280;40916;51.632;5.552;2023-03-22T01:17:11;1004.9234826911522;;;8.852947024671717;0
55014;BME280;40916;51.632;5.552;2023-03-22T01:18:11;1004.8705017688195;;;8.846021525295072;0
55014;BME280;40916;51.632;5.552;2023-03-22T01:19:11;1004.9328230523598;;;8.846021525295072;0
55014;BME280;40916;51.632;5.552;2023-03-22T01:20:11;1004.9601428369343;;;8.852947024671717;0
55014;BME280;40916;51.632;5.552;2023-03-22T01:21:11;1004.8138547252814;;;8.83909555863762;0
55014;BME280;40916;51.632;5.552;2023-03-22T01:22:11;1004.8721585069462;;;8.852947024671717;0
55014;BME280;40916;51.632;5.552;2023-03-22T01:23:11;1004.784527532349;;;8.83909555863762;0
55014;BME280;40916;51.632;5.552;2023-03-22T01:24:12;1004.8028570270438;;;8.83909555863762;0
55014;BME280;40916;51.632;5.552;2023-03-22T01:25:12;1004.8011976907433;;;8.832169124548102;0
55014;BME280;40916;51.632;5.552;2023-03-22T01:26:12;1004.7112095831643;;;8.83909555863762;0
55014;BME280;40916;51.632;5.552;2023-03-22T01:27:12;1004.7645392591799;;;8.832169124548102;0
55014;BME280;40916;51.632;5.552;2023-03-22T01:28:12;1004.7205491569295;;;8.832169124548102;0
55014;BME280;40916;51.632;5.552;2023-03-22T01:29:12;1004.6312535283911;;;8.811387016173715;0
55014;BME280;40916;51.632;5.552;2023-03-22T01:30:12;1004.5909311442038;;;8.811387016173715;0
55014;BME280;40916;51.632;5.552;2023-03-22T01:31:12;1004.6055938277057;;;8.811387016173715;0
55014;BME280;40916;51.632;5.552;2023-03-22T01:32:12;1004.5779298676587;;;8.818314853467562;0
55014;BME280;40916;51.632;5.552;2023-03-22T01:33:12;1004.557594788149;;;8.825242222875211;0
55014;BME280;40916;51.632;5.552;2023-03-22T01:34:13;1004.5192782722141;;;8.818314853467562;0
55014;BME280;40916;51.632;5.552;2023-03-22T01:35:13;1004.5246027689341;;;8.825242222875211;0
55014;BME280;40916;51.632;5.552;2023-03-22T01:36:13;1004.4439556512177;;;8.825242222875211;0
55014;BME280;40916;51.632;5.552;2023-03-22T01:37:13;1004.4212398860304;;;8.852947024671717;0
55014;BME280;40916;51.632;5.552;2023-03-22T01:38:13;1004.3972256329979;;;8.859872056918732;0
55014;BME280;40916;51.632;5.552;2023-03-22T01:39:13;1004.3981046715038;;;8.89449021649627;0
55014;BME280;40916;51.632;5.552;2023-03-22T01:40:13;1004.28038409398;;;8.908334215704038;0
55014;BME280;40916;51.632;5.552;2023-03-22T01:41:13;1004.2763120565392;;;8.922176351221744;0
55014;BME280;40916;51.632;5.552;2023-03-22T01:42:13;1004.3194799128785;;;8.949855036004035;0
55014;BME280;40916;51.632;5.552;2023-03-22T01:43:14;1004.3096701455934;;;8.970609166355473;0
55014;BME280;40916;51.632;5.552;2023-03-22T01:44:14;1004.340181068765;;;8.991359115581503;0
55014;BME280;40916;51.632;5.552;2023-03-22T01:45:16;1004.2993938158237;;;9.005190094217639;0
55014;BME280;40916;51.632;5.552;2023-03-22T01:46:14;1004.2732660589171;;;9.019019217573653;0
55014;BME280;40916;51.632;5.552;2023-03-22T01:47:14;1004.2345272017616;;;9.025933083895808;0
55014;BME280;40916;51.632;5.552;2023-03-22T01:48:17;1004.3053373098865;;;9.046671903233442;0
55014;BME280;40916;51.632;5.552;2023-03-22T01:49:15;1004.1701133446976;;;9.032846486846836;0
55014;BME280;40916;51.632;5.552;2023-03-22T01:50:14;1004.2042400930654;;;9.053583916967828;0
55014;BME280;40916;51.632;5.552;2023-03-22T01:51:15;1004.0575363226707;;;9.053583916967828;0
55014;BME280;40916;51.632;5.552;2023-03-22T01:52:14;1004.1744133486599;;;9.0674065562653;0
55014;BME280;40916;51.632;5.552;2023-03-22T01:53:14;1004.1482453034824;;;9.081227345662342;0
55014;BME280;40916;51.632;5.552;2023-03-22T01:54:15;1004.1094828516233;;;9.088137047020947;0
55014;BME280;40916;51.632;5.552;2023-03-22T01:55:14;1004.0817211874685;;;9.095046286351614;0
55014;BME280;40916;51.632;5.552;2023-03-22T01:56:15;1004.066019677286;;;9.122678626372366;0
55014;BME280;40916;51.632;5.552;2023-03-22T01:57:15;1003.8962338776648;;;9.101955063803263;0
55014;BME280;40916;51.632;5.552;2023-03-22T01:58:15;1003.9863593883447;;;9.143398037385378;0
55014;BME280;40916;51.632;5.552;2023-03-22T01:59:15;1003.9805881106365;;;9.15030358584836;0
55014;BME280;40916;51.632;5.552;2023-03-22T02:01:15;1003.988388148453;;;9.184824420780185;0
55014;BME280;40916;51.632;5.552;2023-03-22T02:02:15;1003.9018941687611;;;9.191727207327478;0
55014;BME280;40916;51.632;5.552;2023-03-22T02:03:16;1003.9233395653262;;;9.205531401167605;0
55014;BME280;40916;51.632;5.552;2023-03-22T02:04:16;1003.8059379014019;;;9.205531401167605;0
55014;BME280;40916;51.632;5.552;2023-03-22T02:05:15;1003.876613592069;;;9.2262342460102;0
55014;BME280;40916;51.632;5.552;2023-03-22T02:06:15;1003.9179262519822;;;9.246932959297919;0
55014;BME280;40916;51.632;5.552;2023-03-22T02:07:16;1003.8922423087276;;;9.246932959297919;0
55014;BME280;40916;51.632;5.552;2023-03-22T02:08:15;1003.882170977053;;;9.267627545015575;0
55014;BME280;40916;51.632;5.552;2023-03-22T02:09:16;1003.919785444124;;;9.288318007142866;0
55014;BME280;40916;51.632;5.552;2023-03-22T02:10:17;1003.8301911218241;;;9.281421644365025;0
55014;BME280;40916;51.632;5.552;2023-03-22T02:11:16;1003.8185655965658;;;9.295213912185659;0
55014;BME280;40916;51.632;5.552;2023-03-22T02:12:18;1003.782763976593;;;9.315898882374256;0
55014;BME280;40916;51.632;5.552;2023-03-22T02:13:19;1003.7585933029617;;;9.322792957947044;0
55014;BME280;40916;51.632;5.552;2023-03-22T02:14:19;1003.813000092961;;;9.336579738238566;0
55014;BME280;40916;51.632;5.552;2023-03-22T02:15:16;1003.7851534378096;;;9.343472443250768;0
55014;BME280;40916;51.632;5.552;2023-03-22T02:16:20;1003.8138625188865;;;9.35725648374126;0
55014;BME280;40916;51.632;5.552;2023-03-22T02:17:18;1003.7339647887813;;;9.377929122839934;0
55014;BME280;40916;51.632;5.552;2023-03-22T02:18:20;1003.7795082641898;;;9.384819090688563;0
55014;BME280;40916;51.632;5.552;2023-03-22T02:19:24;1003.7302946108406;;;9.377929122839934;0
55014;BME280;40916;51.632;5.552;2023-03-22T02:20:23;1003.675241955966;;;9.377929122839934;0
55014;BME280;40916;51.632;5.552;2023-03-22T02:21:24;1003.7282603316675;;;9.419262097630188;0
55014;BME280;40916;51.632;5.552;2023-03-22T02:22:20;1003.7334207738757;;;9.426149333580746;0
55014;BME280;40916;51.632;5.552;2023-03-22T02:24:28;1003.6820328885103;;;9.426149333580746;0
55014;BME280;40916;51.632;5.552;2023-03-22T02:25:21;1003.7687291937787;;;9.453693730787254;0
55014;BME280;40916;51.632;5.552;2023-03-22T02:26:23;1003.7063258529837;;;9.453693730787254;0
55014;BME280;40916;51.632;5.552;2023-03-22T02:27:21;1003.6527439235165;;;9.460578694168614;0
55014;BME280;40916;51.632;5.552;2023-03-22T02:28:19;1003.6740530161624;;;9.474347258846276;0
55014;BME280;40916;51.632;5.552;2023-03-22T02:29:19;1003.6630401724666;;;9.474347258846276;0
55014;BME280;40916;51.632;5.552;2023-03-22T02:30:23;1003.7372100306461;;;9.494996702831923;0
55014;BME280;40916;51.632;5.552;2023-03-22T02:31:38;1003.6615859051408;;;9.501878943933622;0
55014;BME280;40916;51.632;5.552;2023-03-22T02:32:28;1003.6329411975709;;;9.522522948591053;0
55014;BME280;40916;51.632;5.552;2023-03-22T02:33:23;1003.676948548244;;;9.556920569562322;0
55014;BME280;40916;51.632;5.552;2023-03-22T02:34:37;1003.6284498276357;;;9.570676452620415;0
55014;BME280;40916;51.632;5.552;2023-03-22T02:35:20;1003.62099071958;;;9.605058257062812;0
55014;BME280;40916;51.632;5.552;2023-03-22T02:36:23;1003.6114148804065;;;9.611933264271855;0
55014;BME280;40916;51.632;5.552;2023-03-22T02:37:36;1003.6091811687513;;;9.618807820591066;0
55014;BME280;40916;51.632;5.552;2023-03-22T02:38:52;1003.6530704283869;;;9.653173843882975;0
55014;BME280;40916;51.632;5.552;2023-03-22T02:39:21;1003.5943123730237;;;9.653173843882975;0
55014;BME280;40916;51.632;5.552;2023-03-22T02:40:19;1003.5898207027241;;;9.666917102011638;0
55014;BME280;40916;51.632;5.552;2023-03-22T02:41:20;1003.5530958343977;;;9.666917102011638;0
55014;BME280;40916;51.632;5.552;2023-03-22T02:42:29;1003.6353151460668;;;9.673788056396646;0
55014;BME280;40916;51.632;5.552;2023-03-22T02:43:20;1003.6375630493103;;;9.666917102011638;0
55014;BME280;40916;51.632;5.552;2023-03-22T02:44:21;1003.6697913830575;;;9.680658561187016;0
55014;BME280;40916;51.632;5.552;2023-03-22T02:45:19;1003.6110297972596;;;9.680658561187016;0
55014;BME280;40916;51.632;5.552;2023-03-22T02:46:21;1003.5991786450395;;;9.694398222558181;0
55014;BME280;40916;51.632;5.552;2023-03-22T02:47:20;1003.6167021847116;;;9.708136087273228;0
55014;BME280;40916;51.632;5.552;2023-03-22T02:48:20;1003.5313776731613;;;9.721872156479275;0
55014;BME280;40916;51.632;5.552;2023-03-22T02:49:20;1003.5681069356317;;;9.721872156479275;0
55014;BME280;40916;51.632;5.552;2023-03-22T02:50:21;1003.5158286264668;;;9.73560643132246;0
55014;BME280;40916;51.632;5.552;2023-03-22T02:51:20;1003.5420781476743;;;9.756204481661651;0
55014;BME280;40916;51.632;5.552;2023-03-22T02:52:22;1003.5802110039255;;;9.763069602499932;0
55014;BME280;40916;51.632;5.552;2023-03-22T02:53:20;1003.5352537051893;;;9.776798501121625;0
55014;BME280;40916;51.632;5.552;2023-03-22T02:54:20;1003.5343683123199;;;9.790525609955282;0
55014;BME280;40916;51.632;5.552;2023-03-22T02:55:20;1003.4586155761936;;;9.797388493558277;0
55014;BME280;40916;51.632;5.552;2023-03-22T02:56:20;1003.4995127712792;;;9.81797446282259;0
55014;BME280;40916;51.632;5.552;2023-03-22T02:57:21;1003.4999852016468;;;9.838556412760635;0
55014;BME280;40916;51.632;5.552;2023-03-22T02:58:21;1003.5123855174805;;;9.845416170220414;0
55014;BME280;40916;51.632;5.552;2023-03-22T02:59:20;1003.460027438165;;;9.859134347213587;0
55014;BME280;40916;51.632;5.552;2023-03-22T03:00:20;1003.4393556873713;;;9.865992767031084;0
55014;BME280;40916;51.632;5.552;2023-03-22T03:01:21;1003.4531178187682;;;9.879708270017726;0
55014;BME280;40916;51.632;5.552;2023-03-22T03:02:20;1003.4838791130669;;;9.886565353470615;0
55014;BME280;40916;51.632;5.552;2023-03-22T03:03:20;1003.4085911317833;;;9.859134347213587;0
55014;BME280;40916;51.632;5.552;2023-03-22T03:04:23;1003.4122651528949;;;9.859134347213587;0
55014;BME280;40916;51.632;5.552;2023-03-22T03:05:21;1003.3805704708803;;;9.865992767031084;0
55014;BME280;40916;51.632;5.552;2023-03-22T03:06:21;1003.4407263383777;;;9.872850741251831;0
55014;BME280;40916;51.632;5.552;2023-03-22T03:07:21;1003.4150074175898;;;9.872850741251831;0
55014;BME280;40916;51.632;5.552;2023-03-22T03:08:21;1003.3989408477637;;;9.865992767031084;0
55014;BME280;40916;51.632;5.552;2023-03-22T03:09:21;1003.3635695934945;;;9.872850741251831;0
55014;BME280;40916;51.632;5.552;2023-03-22T03:10:21;1003.399371550779;;;9.886565353470615;0
55014;BME280;40916;51.632;5.552;2023-03-22T03:11:22;1003.4167968164178;;;9.900278185004446;0
55014;BME280;40916;51.632;5.552;2023-03-22T03:12:22;1003.3322867777699;;;9.900278185004446;0
55014;BME280;40916;51.632;5.552;2023-03-22T03:13:22;1003.4038598106505;;;9.927698510550456;0
55014;BME280;40916;51.632;5.552;2023-03-22T03:15:22;1003.3197241160478;;;9.948259088835687;0
55014;BME280;40916;51.632;5.552;2023-03-22T03:16:23;1003.2879989006977;;;9.955111726946658;0
55014;BME280;40916;51.632;5.552;2023-03-22T03:17:24;1003.3752110923971;;;9.968815672039632;0
55014;BME280;40916;51.632;5.552;2023-03-22T03:18:25;1003.2292023410293;;;9.955111726946658;0
55014;BME280;40916;51.632;5.552;2023-03-22T03:19:24;1003.2626310452154;;;9.975666979303817;0
55014;BME280;40916;51.632;5.552;2023-03-22T03:20:25;1003.3311123186257;;;9.968815672039632;0
55014;BME280;40916;51.632;5.552;2023-03-22T03:21:25;1003.2896961055015;;;9.982517843234497;0
55014;BME280;40916;51.632;5.552;2023-03-22T03:22:29;1003.2452464605824;;;9.961963921300931;0
55014;BME280;40916;51.632;5.552;2023-03-22T03:23:24;1003.2993805488204;;;9.975666979303817;0
55014;BME280;40916;51.632;5.552;2023-03-22T03:24:25;1003.3043961285359;;;9.982517843234497;0
55014;BME280;40916;51.632;5.552;2023-03-22T03:25:24;1003.2689844289429;;;9.989368263972608;0
55014;BME280;40916;51.632;5.552;2023-03-22T03:26:26;1003.2863566434633;;;10.003067776434609;0
55014;BME280;40916;51.632;5.552;2023-03-22T03:27:24;1003.2275539382207;;;10.003067776434609;0
55014;BME280;40916;51.632;5.552;2023-03-22T03:28:24;1003.2115192396983;;;9.996218241659037;0
55014;BME280;40916;51.632;5.552;2023-03-22T03:29:25;1003.2352216700781;;;10.023613724703516;0
55014;BME280;40916;51.632;5.552;2023-03-22T03:30:24;1003.2549260198417;;;10.0304614892427;0
55014;BME280;40916;51.632;5.552;2023-03-22T03:31:26;1003.2305238806497;;;10.037308811574253;0
55014;BME280;40916;51.632;5.552;2023-03-22T03:32:25;1003.1753922562585;;;10.037308811574253;0
55014;BME280;40916;51.632;5.552;2023-03-22T03:33:24;1003.1830317945731;;;10.057848126727471;0
55014;BME280;40916;51.632;5.552;2023-03-22T03:34:24;1003.1733227384269;;;10.064693681632555;0
55014;BME280;40916;51.632;5.552;2023-03-22T03:35:25;1003.1856659236602;;;10.071538795031746;0
55014;BME280;40916;51.632;5.552;2023-03-22T03:36:24;1003.2263630266623;;;10.092071487595337;0
55014;BME280;40916;51.632;5.552;2023-03-22T03:37:25;1003.0940313845506;;;10.092071487595337;0
55014;BME280;40916;51.632;5.552;2023-03-22T03:38:25;1003.1859283418729;;;10.092071487595337;0
55014;BME280;40916;51.632;5.552;2023-03-22T03:39:25;1003.2095356298076;;;10.119442238427727;0
55014;BME280;40916;51.632;5.552;2023-03-22T03:40:25;1003.1457384867507;;;10.112600211648392;0
55014;BME280;40916;51.632;5.552;2023-03-22T03:41:26;1003.1160866475234;;;10.092071487595337;0
55014;BME280;40916;51.632;5.552;2023-03-22T03:42:25;1003.2389444321823;;;10.119442238427727;0
55014;BME280;40916;51.632;5.552;2023-03-22T03:43:25;1003.2302875058734;;;10.112600211648392;0
55014;BME280;40916;51.632;5.552;2023-03-22T03:44:25;1003.1935270550391;;;10.112600211648392;0
55014;BME280;40916;51.632;5.552;2023-03-22T03:45:25;1003.1948312314775;;;10.119442238427727;0
55014;BME280;40916;51.632;5.552;2023-03-22T03:46:25;1003.1677947465379;;;10.112600211648392;0
55014;BME280;40916;51.632;5.552;2023-03-22T03:47:26;1003.2194916912621;;;10.133124970967486;0
55014;BME280;40916;51.632;5.552;2023-03-22T03:48:26;1003.2475998617027;;;10.12628382482086;0
55014;BME280;40916;51.632;5.552;2023-03-22T03:49:26;1003.2389444321823;;;10.119442238427727;0
55014;BME280;40916;51.632;5.552;2023-03-22T03:50:26;1003.2951489178073;;;10.105757744343101;0
55014;BME280;40916;51.632;5.552;2023-03-22T03:51:26;1003.1809415247291;;;10.085227697873055;0
55014;BME280;40916;51.632;5.552;2023-03-22T03:52:26;1003.2765130095602;;;10.085227697873055;0
55014;BME280;40916;51.632;5.552;2023-03-22T03:53:26;1003.2384412025445;;;10.078383467065208;0
55014;BME280;40916;51.632;5.552;2023-03-22T03:54:26;1003.2541872882282;;;10.064693681632555;0
55014;BME280;40916;51.632;5.552;2023-03-22T03:55:26;1003.27360095271;;;10.051002130176258;0
55014;BME280;40916;51.632;5.552;2023-03-22T03:56:26;1003.2869802106115;;;10.044155691838636;0
55014;BME280;40916;51.632;5.552;2023-03-22T03:57:26;1003.2291983035666;;;10.0304614892427;0
55014;BME280;40916;51.632;5.552;2023-03-22T03:58:27;1003.3357845946662;;;10.0304614892427;0
55014;BME280;40916;51.632;5.552;2023-03-22T03:59:27;1003.349463714141;;;10.044155691838636;0
55014;BME280;40916;51.632;5.552;2023-03-22T04:00:27;1003.2830010086357;;;10.023613724703516;0
55014;BME280;40916;51.632;5.552;2023-03-22T04:01:27;1003.258288249164;;;10.009916868440087;0
55014;BME280;40916;51.632;5.552;2023-03-22T04:02:27;1003.2826814734932;;;10.003067776434609;0
55014;BME280;40916;51.632;5.552;2023-03-22T04:03:27;1003.2923717487193;;;9.996218241659037;0
55014;BME280;40916;51.632;5.552;2023-03-22T04:04:27;1003.3264461666566;;;9.982517843234497;0
55014;BME280;40916;51.632;5.552;2023-03-22T04:05:27;1003.3104054022219;;;9.975666979303817;0
55014;BME280;40916;51.632;5.552;2023-03-22T04:06:27;1003.3545048265345;;;9.975666979303817;0
55014;BME280;40916;51.632;5.552;2023-03-22T04:07:28;1003.2425547688892;;;9.948259088835687;0
55014;BME280;40916;51.632;5.552;2023-03-22T04:08:28;1003.2512510473362;;;9.955111726946658;0
55014;BME280;40916;51.632;5.552;2023-03-22T04:09:29;1003.2328771251163;;;9.955111726946658;0
55014;BME280;40916;51.632;5.552;2023-03-22T04:10:28;1003.2823460946981;;;9.982517843234497;0
55014;BME280;40916;51.632;5.552;2023-03-22T04:11:28;1003.2676460745191;;;9.982517843234497;0
55014;BME280;40916;51.632;5.552;2023-03-22T04:12:28;1003.1851049412627;;;9.955111726946658;0
55014;BME280;40916;51.632;5.552;2023-03-22T04:13:28;1003.1553399473289;;;9.934552480778859;0
55014;BME280;40916;51.632;5.552;2023-03-22T04:14:28;1003.2541675832466;;;9.913989236986868;0
55014;BME280;40916;51.632;5.552;2023-03-22T04:15:28;1003.2266823799904;;;9.886565353470615;0
55014;BME280;40916;51.632;5.552;2023-03-22T04:16:29;1003.2059988565481;;;9.89342199175228;0
55014;BME280;40916;51.632;5.552;2023-03-22T04:17:29;1003.1100549438222;;;9.872850741251831;0
55014;BME280;40916;51.632;5.552;2023-03-22T04:18:29;1003.0949307690738;;;9.852275481657372;0
55014;BME280;40916;51.632;5.552;2023-03-22T04:19:29;1003.1220178514396;;;9.859134347213587;0
55014;BME280;40916;51.632;5.552;2023-03-22T04:20:29;1003.1339729512966;;;9.845416170220414;0
55014;BME280;40916;51.632;5.552;2023-03-22T04:21:29;1003.1082556382064;;;9.845416170220414;0
55014;BME280;40916;51.632;5.552;2023-03-22T04:22:29;1003.1831057464365;;;9.852275481657372;0